createdAt,value
2022-09-27T00:01:30.686Z,18.00
2022-09-27T00:03:58.738Z,20.77
2022-09-27T00:06:31.062Z,20.60
2022-09-27T00:09:00.109Z,20.90
2022-09-27T00:11:35.274Z,18.43
2022-09-27T00:14:04.220Z,19.70
2022-09-27T00:16:33.427Z,17.17
2022-09-27T00:19:06.968Z,18.27
2022-09-27T00:21:34.345Z,16.33
2022-09-27T00:24:01.675Z,16.03
2022-09-27T00:26:29.389Z,17.67
2022-09-27T00:28:56.277Z,17.10
2022-09-27T00:31:29.818Z,16.33
2022-09-27T00:33:59.544Z,16.87
2022-09-27T00:36:27.868Z,21.17
2022-09-27T00:38:55.217Z,18.80
2022-09-27T00:41:32.251Z,17.77
2022-09-27T00:44:25.643Z,15.40
2022-09-27T00:47:03.910Z,16.13
2022-09-27T00:49:33.742Z,15.10
2022-09-27T00:52:08.790Z,16.90
2022-09-27T00:54:40.886Z,18.60
2022-09-27T00:57:09.095Z,20.33
2022-09-27T00:59:39.624Z,15.90
2022-09-27T01:02:07.995Z,16.63
2022-09-27T01:04:38.482Z,18.77
2022-09-27T01:07:05.940Z,17.40
2022-09-27T01:09:33.670Z,17.87
2022-09-27T01:12:28.526Z,16.90
2022-09-27T01:15:05.335Z,17.03
2022-09-27T01:18:01.565Z,18.10
2022-09-27T01:20:43.867Z,19.50
2022-09-27T01:23:44.667Z,20.87
2022-09-27T01:26:32.641Z,19.80
2022-09-27T01:29:22.499Z,35.17
2022-09-27T01:31:53.830Z,28.87
2022-09-27T01:34:58.723Z,50.53
2022-09-27T01:37:43.436Z,36.67
2022-09-27T01:40:24.658Z,30.73
2022-09-27T01:43:17.842Z,54.23
2022-09-27T01:45:52.701Z,45.03
2022-09-27T01:48:24.322Z,95.20
2022-09-27T01:51:07.591Z,26.10
2022-09-27T01:53:44.897Z,36.70
2022-09-27T01:56:18.341Z,68.30
2022-09-27T01:58:59.249Z,63.63
2022-09-27T02:01:30.186Z,62.33
2022-09-27T02:04:00.446Z,38.17
2022-09-27T02:06:34.858Z,51.53
2022-09-27T02:09:11.538Z,42.47
2022-09-27T02:11:43.446Z,114.27
2022-09-27T02:14:21.951Z,77.20
2022-09-27T02:17:00.092Z,54.90
2022-09-27T02:19:40.022Z,47.83
2022-09-27T02:22:44.037Z,27.30
2022-09-27T02:25:30.721Z,51.00
2022-09-27T02:28:18.454Z,28.00
2022-09-27T02:30:45.542Z,52.63
2022-09-27T02:33:12.633Z,64.60
2022-09-27T02:35:39.997Z,27.33
2022-09-27T02:38:07.526Z,26.27
2022-09-27T02:40:42.707Z,36.87
2022-09-27T02:43:12.278Z,33.50
2022-09-27T02:46:03.287Z,40.03
2022-09-27T02:49:02.939Z,53.17
2022-09-27T02:51:50.264Z,77.73
2022-09-27T02:54:43.803Z,35.73
2022-09-27T02:57:29.628Z,32.20
2022-09-27T03:00:10.029Z,30.43
2022-09-27T03:02:48.424Z,33.77
2022-09-27T03:05:25.304Z,43.33
2022-09-27T03:07:52.376Z,83.43
2022-09-27T03:10:24.819Z,52.60
2022-09-27T03:12:52.373Z,50.60
2022-09-27T03:15:19.327Z,30.60
2022-09-27T03:17:46.716Z,40.20
2022-09-27T03:20:13.677Z,82.27
2022-09-27T03:22:40.993Z,54.90
2022-09-27T03:25:08.964Z,102.07
2022-09-27T03:27:35.847Z,75.07
2022-09-27T03:30:03.125Z,54.43
2022-09-27T03:32:31.135Z,55.53
2022-09-27T03:34:58.160Z,30.50
2022-09-27T03:37:26.715Z,62.43
2022-09-27T03:39:53.613Z,76.73
2022-09-27T03:42:20.447Z,109.37
2022-09-27T03:44:47.358Z,67.73
2022-09-27T03:47:15.410Z,35.63
2022-09-27T03:49:42.231Z,36.90
2022-09-27T03:52:09.094Z,37.20
2022-09-27T03:54:36.012Z,51.93
2022-09-27T03:57:02.780Z,56.73
2022-09-27T03:59:29.611Z,37.20
2022-09-27T04:01:56.537Z,90.10
2022-09-27T04:04:23.938Z,39.27
2022-09-27T04:06:50.990Z,42.47
2022-09-27T04:09:17.914Z,38.23
2022-09-27T04:11:44.740Z,29.23
2022-09-27T04:14:13.078Z,40.97
2022-09-27T04:16:40.575Z,38.00
2022-09-27T04:19:08.587Z,41.03
2022-09-27T04:21:35.868Z,34.57
2022-09-27T04:24:03.208Z,25.50
2022-09-27T04:26:30.100Z,31.77
2022-09-27T04:28:56.929Z,87.30
2022-09-27T04:31:23.910Z,102.23
2022-09-27T04:33:50.727Z,75.23
2022-09-27T04:36:28.575Z,51.20
2022-09-27T04:39:00.476Z,82.57
2022-09-27T04:41:28.799Z,63.27
2022-09-27T04:43:59.416Z,47.83
2022-09-27T04:46:31.526Z,24.90
2022-09-27T04:48:59.910Z,34.87
2022-09-27T04:51:27.328Z,38.87
2022-09-27T04:53:55.874Z,46.90
2022-09-27T04:56:22.708Z,33.03
2022-09-27T04:58:49.492Z,30.53
2022-09-27T05:01:16.451Z,31.37
2022-09-27T05:03:43.568Z,106.90
2022-09-27T05:06:10.651Z,38.33
2022-09-27T05:08:37.418Z,36.23
2022-09-27T05:11:04.904Z,35.60
2022-09-27T05:13:31.716Z,40.17
2022-09-27T05:16:05.546Z,20.30
2022-09-27T05:18:32.554Z,32.23
2022-09-27T05:20:59.292Z,24.87
2022-09-27T05:23:27.306Z,19.33
2022-09-27T05:25:56.502Z,25.03
2022-09-27T05:28:24.274Z,15.37
2022-09-27T05:30:51.155Z,19.87
2022-09-27T05:33:18.992Z,15.80
2022-09-27T05:35:52.379Z,27.20
2022-09-27T05:38:19.657Z,21.80
2022-09-27T05:40:48.406Z,15.50
2022-09-27T05:43:16.117Z,14.37
2022-09-27T05:45:44.122Z,17.57
2022-09-27T05:48:14.158Z,21.50
2022-09-27T05:50:41.361Z,19.67
2022-09-27T05:53:09.445Z,15.23
2022-09-27T05:55:36.393Z,15.73
2022-09-27T05:58:05.208Z,13.60
2022-09-27T06:00:32.795Z,15.17
2022-09-27T06:03:05.098Z,12.30
2022-09-27T06:05:36.589Z,17.73
2022-09-27T06:08:09.904Z,16.13
2022-09-27T06:10:39.393Z,15.57
2022-09-27T06:13:08.881Z,11.17
2022-09-27T06:15:37.831Z,15.83
2022-09-27T06:18:11.203Z,18.57
2022-09-27T06:20:40.143Z,17.73
2022-09-27T06:23:09.937Z,18.03
2022-09-27T06:25:37.748Z,21.17
2022-09-27T06:28:05.358Z,14.83
2022-09-27T06:30:32.798Z,18.17
2022-09-27T06:33:03.460Z,19.50
2022-09-27T06:35:31.147Z,21.83
2022-09-27T06:37:58.177Z,16.73
2022-09-27T06:40:26.333Z,17.90
2022-09-27T06:42:53.612Z,18.37
2022-09-27T06:45:20.577Z,20.57
2022-09-27T06:47:47.381Z,18.43
2022-09-27T06:50:14.468Z,21.77
2022-09-27T06:52:47.907Z,18.00
2022-09-27T06:55:16.499Z,22.37
2022-09-27T06:58:02.380Z,22.77
2022-09-27T07:00:29.794Z,19.60
2022-09-27T07:03:01.113Z,20.87
2022-09-27T07:05:31.314Z,19.27
2022-09-27T07:07:59.646Z,23.33
2022-09-27T07:10:29.534Z,24.27
2022-09-27T07:12:58.364Z,26.57
2022-09-27T07:15:25.238Z,26.27
2022-09-27T07:17:59.134Z,27.23
2022-09-27T07:20:26.955Z,23.17
2022-09-27T07:22:53.776Z,22.23
2022-09-27T07:25:20.528Z,23.13
2022-09-27T07:27:47.351Z,26.93
2022-09-27T07:30:14.749Z,23.23
2022-09-27T07:32:42.354Z,23.40
2022-09-27T07:35:10.559Z,27.20
2022-09-27T07:37:38.155Z,27.07
2022-09-27T07:40:08.784Z,27.03
2022-09-27T07:42:39.117Z,29.20
2022-09-27T07:45:09.095Z,29.83
2022-09-27T07:47:37.802Z,27.37
2022-09-27T07:50:12.362Z,27.27
2022-09-27T07:52:41.357Z,28.33
2022-09-27T07:55:10.736Z,31.47
2022-09-27T07:57:38.307Z,31.13
2022-09-27T08:00:07.232Z,28.00
2022-09-27T08:02:34.108Z,32.93
2022-09-27T08:05:00.939Z,29.97
2022-09-27T08:07:28.625Z,37.17
2022-09-27T08:09:55.722Z,31.37
2022-09-27T08:12:22.581Z,30.90
2022-09-27T08:14:49.819Z,29.67
2022-09-27T08:17:17.468Z,30.47
2022-09-27T08:19:45.323Z,29.63
2022-09-27T08:22:13.986Z,31.17
2022-09-27T08:24:41.729Z,30.03
2022-09-27T08:27:11.729Z,29.35
2022-09-27T08:29:41.927Z,34.03
2022-09-27T08:32:10.071Z,28.43
2022-09-27T08:34:37.136Z,27.80
2022-09-27T08:37:04.595Z,30.00
2022-09-27T08:39:31.553Z,30.57
2022-09-27T08:42:06.942Z,25.13
2022-09-27T08:44:52.495Z,25.20
2022-09-27T08:47:29.603Z,23.63
2022-09-27T08:50:03.016Z,24.87
2022-09-27T08:52:37.123Z,24.20
2022-09-27T08:55:14.627Z,21.73
2022-09-27T08:57:41.563Z,27.35
2022-09-27T09:00:12.233Z,27.48
2022-09-27T09:02:41.629Z,23.30
2022-09-27T09:05:13.273Z,21.23
2022-09-27T09:08:18.690Z,22.50
2022-09-27T09:11:09.879Z,25.05
2022-09-27T09:14:02.818Z,22.23
2022-09-27T09:17:03.043Z,22.70
2022-09-27T09:19:47.386Z,20.70
2022-09-27T09:22:32.040Z,17.70
2022-09-27T09:25:21.591Z,20.05
2022-09-27T09:28:02.455Z,17.67
2022-09-27T09:31:04.722Z,18.75
2022-09-27T09:33:44.225Z,20.38
2022-09-27T09:36:39.013Z,17.33
2022-09-27T09:39:13.165Z,15.48
2022-09-27T09:41:43.424Z,14.90
2022-09-27T09:44:18.837Z,17.30
2022-09-27T09:46:53.738Z,16.58
2022-09-27T09:49:36.041Z,15.60
2022-09-27T09:52:16.307Z,17.38
2022-09-27T09:55:06.573Z,15.80
2022-09-27T09:58:05.286Z,17.98
2022-09-27T10:00:32.017Z,17.75
2022-09-27T10:03:00.712Z,17.77
2022-09-27T10:05:28.751Z,18.27
2022-09-27T10:08:00.667Z,17.83
2022-09-27T10:10:28.020Z,21.63
2022-09-27T10:12:56.302Z,17.90
2022-09-27T10:15:26.042Z,19.30
2022-09-27T10:17:56.329Z,16.90
2022-09-27T10:21:07.978Z,22.30
2022-09-27T10:23:34.806Z,16.25
2022-09-27T10:26:04.511Z,20.58
2022-09-27T10:28:44.744Z,19.30
2022-09-27T10:31:18.396Z,17.67
2022-09-27T10:33:56.939Z,18.08
2022-09-27T10:36:29.731Z,18.45
2022-09-27T10:39:00.651Z,20.77
2022-09-27T10:41:47.725Z,17.65
2022-09-27T10:44:20.308Z,20.40
2022-09-27T10:46:53.625Z,17.65
2022-09-27T10:49:36.739Z,18.38
2022-09-27T10:52:07.310Z,17.10
2022-09-27T10:54:39.879Z,18.42
2022-09-27T10:57:18.743Z,18.35
2022-09-27T10:59:50.753Z,21.02
2022-09-27T11:02:24.025Z,17.92
2022-09-27T11:05:23.679Z,23.05
2022-09-27T11:07:55.650Z,18.85
2022-09-27T11:10:36.255Z,19.30
2022-09-27T11:13:12.607Z,17.33
2022-09-27T11:16:05.087Z,18.10
2022-09-27T11:18:53.317Z,17.73
2022-09-27T11:21:58.546Z,21.92
2022-09-27T11:24:32.215Z,25.10
2022-09-27T11:27:29.407Z,21.00
2022-09-27T11:30:08.610Z,20.58
2022-09-27T11:32:50.356Z,21.55
2022-09-27T11:35:34.743Z,19.90
2022-09-27T11:38:07.169Z,22.83
2022-09-27T11:41:11.495Z,21.40
2022-09-27T11:44:00.054Z,20.10
2022-09-27T11:46:41.145Z,20.45
2022-09-27T11:50:04.243Z,21.27
2022-09-27T11:53:01.591Z,18.90
2022-09-27T11:55:56.958Z,18.45
2022-09-27T11:58:51.200Z,17.75
2022-09-27T12:01:45.668Z,19.17
2022-09-27T12:04:49.698Z,18.90
2022-09-27T12:07:27.365Z,17.50
2022-09-27T12:10:01.055Z,16.40
2022-09-27T12:12:35.494Z,18.67
2022-09-27T12:15:22.848Z,17.13
2022-09-27T12:17:55.993Z,18.00
2022-09-27T12:20:28.561Z,20.65
2022-09-27T12:23:02.481Z,16.60
2022-09-27T12:25:37.549Z,17.02
2022-09-27T12:28:36.948Z,15.93
2022-09-27T12:31:31.763Z,15.65
2022-09-27T12:34:20.445Z,15.75
2022-09-27T12:37:25.062Z,15.40
2022-09-27T12:40:00.787Z,13.13
2022-09-27T12:42:36.817Z,13.25
2022-09-27T12:45:03.936Z,11.90
2022-09-27T12:47:56.773Z,12.95
2022-09-27T12:50:44.413Z,11.32
2022-09-27T12:53:23.415Z,12.02
2022-09-27T12:55:58.444Z,9.48
2022-09-27T12:59:12.422Z,11.93
2022-09-27T13:02:16.801Z,10.98
2022-09-27T13:05:08.134Z,10.13
2022-09-27T13:07:59.450Z,9.88
2022-09-27T13:10:29.562Z,10.60
2022-09-27T13:12:57.316Z,11.20
2022-09-27T13:15:34.351Z,9.95
2022-09-27T13:18:05.373Z,9.13
2022-09-27T13:20:33.335Z,11.55
2022-09-27T13:23:02.208Z,12.25
2022-09-27T13:25:51.632Z,9.98
2022-09-27T13:28:31.793Z,11.40
2022-09-27T13:31:03.754Z,10.40
2022-09-27T13:33:53.462Z,15.52
2022-09-27T13:36:32.240Z,12.63
2022-09-27T13:39:04.477Z,11.13
2022-09-27T13:41:48.613Z,10.68
2022-09-27T13:44:40.602Z,9.65
2022-09-27T13:47:37.638Z,9.82
2022-09-27T13:50:27.163Z,11.80
2022-09-27T13:53:36.877Z,11.82
2022-09-27T13:56:04.958Z,10.65
2022-09-27T13:59:01.441Z,17.20
2022-09-27T14:01:35.833Z,12.25
2022-09-27T14:04:30.909Z,15.88
2022-09-27T14:07:01.766Z,13.80
2022-09-27T14:09:32.820Z,15.05
2022-09-27T14:12:04.814Z,14.32
2022-09-27T14:14:33.499Z,13.82
2022-09-27T14:17:02.450Z,13.88
2022-09-27T14:19:30.755Z,16.77
2022-09-27T14:21:57.876Z,18.73
2022-09-27T14:24:36.576Z,16.55
2022-09-27T14:27:29.462Z,21.27
2022-09-27T14:30:01.746Z,21.88
2022-09-27T14:32:34.053Z,14.65
2022-09-27T14:35:05.815Z,11.45
2022-09-27T14:37:32.957Z,12.35
2022-09-27T14:40:08.025Z,11.00
2022-09-27T14:42:36.903Z,11.07
2022-09-27T14:45:36.591Z,11.75
2022-09-27T14:48:32.353Z,12.57
2022-09-27T14:51:26.089Z,12.30
2022-09-27T14:54:00.685Z,12.68
2022-09-27T14:56:33.888Z,13.75
2022-09-27T14:59:34.620Z,14.27
2022-09-27T15:02:10.289Z,14.23
2022-09-27T15:04:37.265Z,16.75
2022-09-27T15:07:05.157Z,16.52
2022-09-27T15:09:33.500Z,16.10
2022-09-27T15:12:02.434Z,15.90
2022-09-27T15:14:33.127Z,13.00
2022-09-27T15:17:05.479Z,11.90
2022-09-27T15:19:34.408Z,22.30
2022-09-27T15:22:24.547Z,16.05
2022-09-27T15:24:51.365Z,13.55
2022-09-27T15:27:25.657Z,12.38
2022-09-27T15:29:55.657Z,14.05
2022-09-27T15:32:28.576Z,14.70
2022-09-27T15:34:56.542Z,13.25
2022-09-27T15:37:28.273Z,12.00
2022-09-27T15:39:55.239Z,13.13
2022-09-27T15:42:25.151Z,13.07
2022-09-27T15:44:53.709Z,12.27
2022-09-27T15:47:40.283Z,15.80
2022-09-27T15:50:16.657Z,12.77
2022-09-27T15:52:51.681Z,13.65
2022-09-27T15:55:22.766Z,14.05
2022-09-27T15:57:59.762Z,14.43
2022-09-27T16:00:27.559Z,13.73
2022-09-27T16:02:54.616Z,13.65
2022-09-27T16:05:25.080Z,14.25
2022-09-27T16:07:52.006Z,14.68
2022-09-27T16:10:20.182Z,15.18
2022-09-27T16:12:47.510Z,14.63
2022-09-27T16:15:15.206Z,16.27
2022-09-27T16:17:43.677Z,16.15
2022-09-27T16:20:21.610Z,17.63
2022-09-27T16:22:48.550Z,21.15
2022-09-27T16:25:15.581Z,35.33
2022-09-27T16:27:43.335Z,19.33
2022-09-27T16:30:10.662Z,18.03
2022-09-27T16:32:45.472Z,19.33
2022-09-27T16:35:13.729Z,20.73
2022-09-27T16:37:40.902Z,21.20
2022-09-27T16:40:09.538Z,23.53
2022-09-27T16:42:37.296Z,24.90
2022-09-27T16:45:10.474Z,28.47
2022-09-27T16:47:39.144Z,29.33
2022-09-27T16:50:26.350Z,27.50
2022-09-27T16:52:53.166Z,29.07
2022-09-27T16:55:24.066Z,28.63
2022-09-27T16:57:51.366Z,29.10
2022-09-27T17:00:19.018Z,26.67
2022-09-27T17:02:49.447Z,25.67
2022-09-27T17:05:23.167Z,28.40
2022-09-27T17:07:52.649Z,31.00
2022-09-27T17:10:21.074Z,29.13
2022-09-27T17:12:48.553Z,29.67
2022-09-27T17:15:16.590Z,28.63
2022-09-27T17:17:45.324Z,29.60
2022-09-27T17:20:12.727Z,26.98
2022-09-27T17:22:39.499Z,30.07
2022-09-27T17:25:06.811Z,29.48
2022-09-27T17:27:33.639Z,27.43
2022-09-27T17:30:00.450Z,28.47
2022-09-27T17:32:27.745Z,30.90
2022-09-27T17:34:54.858Z,29.90
2022-09-27T17:37:21.849Z,30.00
2022-09-27T17:39:48.867Z,30.23
2022-09-27T17:42:15.574Z,35.60
2022-09-27T17:44:42.358Z,35.63
2022-09-27T17:47:27.524Z,36.87
2022-09-27T17:50:13.180Z,35.23
2022-09-27T17:52:40.214Z,38.57
2022-09-27T17:55:07.355Z,42.83
2022-09-27T17:57:34.098Z,44.10
2022-09-27T18:00:01.176Z,41.60
2022-09-27T18:02:28.430Z,48.27
2022-09-27T18:04:55.357Z,47.57
2022-09-27T18:07:22.251Z,51.07
2022-09-27T18:09:50.792Z,71.87
2022-09-27T18:12:17.959Z,84.97
2022-09-27T18:14:45.875Z,80.47
2022-09-27T18:17:13.430Z,57.90
2022-09-27T18:19:40.406Z,59.87
2022-09-27T18:22:07.360Z,61.13
2022-09-27T18:24:34.396Z,40.00
2022-09-27T18:27:04.357Z,33.13
2022-09-27T18:29:31.179Z,30.20
2022-09-27T18:31:57.989Z,28.70
2022-09-27T18:34:25.333Z,26.97
2022-09-27T18:36:52.330Z,28.30
2022-09-27T18:39:19.665Z,28.03
2022-09-27T18:41:49.884Z,27.83
2022-09-27T18:44:17.937Z,25.33
2022-09-27T18:46:45.442Z,23.70
2022-09-27T18:49:14.004Z,23.77
2022-09-27T18:51:44.396Z,22.67
2022-09-27T18:54:18.663Z,21.57
2022-09-27T18:56:48.429Z,23.37
2022-09-27T18:59:15.799Z,24.10
2022-09-27T19:01:45.905Z,23.50
2022-09-27T19:04:19.203Z,37.47
2022-09-27T19:06:49.967Z,38.10
2022-09-27T19:09:17.569Z,25.13
2022-09-27T19:11:44.853Z,25.13
2022-09-27T19:14:18.489Z,27.17
2022-09-27T19:16:47.371Z,23.47
2022-09-27T19:19:16.319Z,24.03
2022-09-27T19:21:43.545Z,24.40
2022-09-27T19:24:11.747Z,25.67
2022-09-27T19:26:38.661Z,23.90
2022-09-27T19:29:06.558Z,24.97
2022-09-27T19:31:35.970Z,21.03
2022-09-27T19:34:03.752Z,23.63
2022-09-27T19:36:30.815Z,24.60
2022-09-27T19:39:02.151Z,27.23
2022-09-27T19:41:29.252Z,25.00
2022-09-27T19:43:57.094Z,25.30
2022-09-27T19:46:25.295Z,24.53
2022-09-27T19:48:53.122Z,22.87
2022-09-27T19:51:28.023Z,25.67
2022-09-27T19:53:55.265Z,25.93
2022-09-27T19:56:22.994Z,23.63
2022-09-27T19:58:49.944Z,25.07
2022-09-27T20:01:22.817Z,21.07
2022-09-27T20:03:51.942Z,20.90
2022-09-27T20:06:20.766Z,21.93
2022-09-27T20:08:48.239Z,29.73
2022-09-27T20:11:17.217Z,27.40
2022-09-27T20:13:44.968Z,23.33
2022-09-27T20:16:13.890Z,17.33
2022-09-27T20:18:46.099Z,19.27
2022-09-27T20:21:13.728Z,18.63
2022-09-27T20:23:41.198Z,18.03
2022-09-27T20:26:11.258Z,21.07
2022-09-27T20:28:49.320Z,19.93
2022-09-27T20:31:19.489Z,20.33
2022-09-27T20:33:46.828Z,26.40
2022-09-27T20:36:28.188Z,34.07
2022-09-27T20:39:03.567Z,33.40
2022-09-27T20:41:35.732Z,30.37
2022-09-27T20:44:06.175Z,27.63
2022-09-27T20:46:34.200Z,32.50
2022-09-27T20:49:04.181Z,27.07
2022-09-27T20:51:33.267Z,27.73
2022-09-27T20:54:01.352Z,28.07
2022-09-27T20:56:31.537Z,26.17
2022-09-27T20:59:01.206Z,23.73
2022-09-27T21:01:29.410Z,24.40
2022-09-27T21:03:58.655Z,23.97
2022-09-27T21:06:27.194Z,21.97
2022-09-27T21:08:54.886Z,23.57
2022-09-27T21:11:22.591Z,30.07
2022-09-27T21:13:50.843Z,27.57
2022-09-27T21:16:23.233Z,29.40
2022-09-27T21:18:55.044Z,32.33
2022-09-27T21:21:24.017Z,34.37
2022-09-27T21:23:56.922Z,26.93
2022-09-27T21:26:24.914Z,40.57
2022-09-27T21:28:56.255Z,36.20
2022-09-27T21:31:29.747Z,30.50
2022-09-27T21:33:59.228Z,30.47
2022-09-27T21:36:28.886Z,22.97
2022-09-27T21:38:56.728Z,22.60
2022-09-27T21:41:24.173Z,22.17
2022-09-27T21:43:51.319Z,27.17
2022-09-27T21:46:19.587Z,27.57
2022-09-27T21:48:51.744Z,28.00
2022-09-27T21:51:21.952Z,27.93
2022-09-27T21:53:57.097Z,33.03
2022-09-27T21:56:26.038Z,30.07
2022-09-27T21:58:52.780Z,28.77
2022-09-27T22:01:25.799Z,27.13
2022-09-27T22:03:55.502Z,26.27
2022-09-27T22:06:28.279Z,28.53
2022-09-27T22:08:56.562Z,26.33
2022-09-27T22:11:25.756Z,29.00
2022-09-27T22:13:53.456Z,26.57
2022-09-27T22:16:22.170Z,29.30
2022-09-27T22:18:52.503Z,28.97
2022-09-27T22:21:22.833Z,30.43
2022-09-27T22:24:04.040Z,31.60
2022-09-27T22:26:36.535Z,27.47
2022-09-27T22:29:05.406Z,30.30
2022-09-27T22:31:32.444Z,25.77
2022-09-27T22:34:01.687Z,29.00
2022-09-27T22:36:31.094Z,29.43
2022-09-27T22:38:58.065Z,22.30
2022-09-27T22:41:25.551Z,24.77
2022-09-27T22:43:53.644Z,23.97
2022-09-27T22:46:21.679Z,24.83
2022-09-27T22:48:49.816Z,22.50
2022-09-27T22:51:17.738Z,23.87
2022-09-27T22:53:45.093Z,21.53
2022-09-27T22:56:17.979Z,23.30
2022-09-27T22:58:47.226Z,22.57
2022-09-27T23:01:22.403Z,19.50
2022-09-27T23:03:52.327Z,21.77
2022-09-27T23:06:20.839Z,20.70
2022-09-27T23:08:47.952Z,27.50
2022-09-27T23:11:20.107Z,26.93
2022-09-27T23:13:49.537Z,26.83
2022-09-27T23:16:24.452Z,20.17
2022-09-27T23:18:56.650Z,19.87
2022-09-27T23:21:25.644Z,19.10
2022-09-27T23:23:55.159Z,19.87
2022-09-27T23:26:26.021Z,19.83
2022-09-27T23:28:58.028Z,18.70
2022-09-27T23:31:26.838Z,17.57
2022-09-27T23:33:54.437Z,19.20
2022-09-27T23:36:25.949Z,19.97
2022-09-27T23:38:54.959Z,19.83
2022-09-27T23:41:22.416Z,19.13
2022-09-27T23:43:49.891Z,18.17
2022-09-27T23:46:18.569Z,16.23
2022-09-27T23:48:46.666Z,14.50
2022-09-27T23:51:13.872Z,13.50
2022-09-27T23:53:41.081Z,14.13
2022-09-27T23:56:16.986Z,11.10
2022-09-27T23:58:45.977Z,11.97
